sensor_id;sensor_type;location;lat;lon;timestamp;temperature;humidity
11304;DHT22;5707;49.588;12.148;2024-02-26T00:00:04;-3.30;99.90
11304;DHT22;5707;49.588;12.148;2024-02-26T00:02:30;-3.20;99.90
11304;DHT22;5707;49.588;12.148;2024-02-26T00:04:57;-3.30;99.90
11304;DHT22;5707;49.588;12.148;2024-02-26T00:07:22;-3.30;99.90
11304;DHT22;5707;49.588;12.148;2024-02-26T00:09:48;-3.20;99.90
11304;DHT22;5707;49.588;12.148;2024-02-26T00:12:13;-3.10;99.90
11304;DHT22;5707;49.588;12.148;2024-02-26T00:14:39;-3.20;99.90
11304;DHT22;5707;49.588;12.148;2024-02-26T00:17:06;-3.20;99.90
11304;DHT22;5707;49.588;12.148;2024-02-26T00:19:32;-3.30;99.90
11304;DHT22;5707;49.588;12.148;2024-02-26T00:21:57;-3.30;99.90
11304;DHT22;5707;49.588;12.148;2024-02-26T00:24:23;-3.30;99.90
11304;DHT22;5707;49.588;12.148;2024-02-26T00:26:48;-3.20;99.90
11304;DHT22;5707;49.588;12.148;2024-02-26T00:29:18;-3.20;99.90
11304;DHT22;5707;49.588;12.148;2024-02-26T00:31:44;-3.10;99.90
11304;DHT22;5707;49.588;12.148;2024-02-26T00:34:09;-2.90;99.90
11304;DHT22;5707;49.588;12.148;2024-02-26T00:36:35;-3.00;99.90
11304;DHT22;5707;49.588;12.148;2024-02-26T00:39:01;-3.10;99.90
11304;DHT22;5707;49.588;12.148;2024-02-26T00:41:26;-3.10;99.90
11304;DHT22;5707;49.588;12.148;2024-02-26T00:43:52;-3.10;99.90
11304;DHT22;5707;49.588;12.148;2024-02-26T00:46:17;-3.10;99.90
11304;DHT22;5707;49.588;12.148;2024-02-26T00:48:43;-3.20;99.90
11304;DHT22;5707;49.588;12.148;2024-02-26T00:51:09;-3.10;99.90
11304;DHT22;5707;49.588;12.148;2024-02-26T00:53:34;-2.80;99.90
11304;DHT22;5707;49.588;12.148;2024-02-26T00:56:00;-2.60;99.90
11304;DHT22;5707;49.588;12.148;2024-02-26T00:58:26;-2.50;99.90
11304;DHT22;5707;49.588;12.148;2024-02-26T01:00:51;-2.40;99.90
11304;DHT22;5707;49.588;12.148;2024-02-26T01:03:17;-2.50;99.90
11304;DHT22;5707;49.588;12.148;2024-02-26T01:05:43;-2.50;99.90
11304;DHT22;5707;49.588;12.148;2024-02-26T01:08:09;-2.60;99.90
11304;DHT22;5707;49.588;12.148;2024-02-26T01:10:34;-2.50;99.90
11304;DHT22;5707;49.588;12.148;2024-02-26T01:13:01;-2.60;99.90
11304;DHT22;5707;49.588;12.148;2024-02-26T01:15:26;-2.70;99.90
11304;DHT22;5707;49.588;12.148;2024-02-26T01:17:52;-2.70;99.90
11304;DHT22;5707;49.588;12.148;2024-02-26T01:20:18;-2.90;99.90
11304;DHT22;5707;49.588;12.148;2024-02-26T01:22:44;-3.00;99.90
11304;DHT22;5707;49.588;12.148;2024-02-26T01:25:10;-3.10;99.90
11304;DHT22;5707;49.588;12.148;2024-02-26T01:27:36;-3.10;99.90
11304;DHT22;5707;49.588;12.148;2024-02-26T01:30:05;-3.20;99.90
11304;DHT22;5707;49.588;12.148;2024-02-26T01:32:31;-3.10;99.90
11304;DHT22;5707;49.588;12.148;2024-02-26T01:34:57;-3.00;99.90
11304;DHT22;5707;49.588;12.148;2024-02-26T01:37:23;-3.00;99.90
11304;DHT22;5707;49.588;12.148;2024-02-26T01:39:48;-3.10;99.90
11304;DHT22;5707;49.588;12.148;2024-02-26T01:42:14;-3.10;99.90
11304;DHT22;5707;49.588;12.148;2024-02-26T01:44:39;-3.30;99.90
11304;DHT22;5707;49.588;12.148;2024-02-26T01:47:11;-3.40;99.90
11304;DHT22;5707;49.588;12.148;2024-02-26T01:49:37;-3.40;99.90
11304;DHT22;5707;49.588;12.148;2024-02-26T01:52:04;-3.50;99.90
11304;DHT22;5707;49.588;12.148;2024-02-26T01:54:31;-3.50;99.90
11304;DHT22;5707;49.588;12.148;2024-02-26T01:56:59;-3.50;99.90
11304;DHT22;5707;49.588;12.148;2024-02-26T01:59:24;-3.50;99.90
11304;DHT22;5707;49.588;12.148;2024-02-26T02:01:55;-3.70;99.90
11304;DHT22;5707;49.588;12.148;2024-02-26T02:04:22;-3.80;99.90
11304;DHT22;5707;49.588;12.148;2024-02-26T02:06:48;-3.80;99.90
11304;DHT22;5707;49.588;12.148;2024-02-26T02:09:14;-3.80;99.90
11304;DHT22;5707;49.588;12.148;2024-02-26T02:11:39;-3.90;99.90
11304;DHT22;5707;49.588;12.148;2024-02-26T02:14:06;-3.90;99.90
11304;DHT22;5707;49.588;12.148;2024-02-26T02:16:31;-3.90;99.90
11304;DHT22;5707;49.588;12.148;2024-02-26T02:18:58;-4.00;99.90
11304;DHT22;5707;49.588;12.148;2024-02-26T02:21:23;-4.00;99.90
11304;DHT22;5707;49.588;12.148;2024-02-26T02:23:49;-3.90;99.90
11304;DHT22;5707;49.588;12.148;2024-02-26T02:26:15;-3.90;99.90
11304;DHT22;5707;49.588;12.148;2024-02-26T02:28:41;-3.90;99.90
11304;DHT22;5707;49.588;12.148;2024-02-26T02:31:07;-3.90;99.90
11304;DHT22;5707;49.588;12.148;2024-02-26T02:33:34;-3.90;99.90
11304;DHT22;5707;49.588;12.148;2024-02-26T02:36:00;-3.80;99.90
11304;DHT22;5707;49.588;12.148;2024-02-26T02:38:25;-3.70;99.90
11304;DHT22;5707;49.588;12.148;2024-02-26T02:40:54;-3.60;99.90
11304;DHT22;5707;49.588;12.148;2024-02-26T02:43:20;-3.60;99.90
11304;DHT22;5707;49.588;12.148;2024-02-26T02:45:46;-3.30;99.90
11304;DHT22;5707;49.588;12.148;2024-02-26T02:48:11;-3.00;99.90
11304;DHT22;5707;49.588;12.148;2024-02-26T02:50:37;-2.80;99.90
11304;DHT22;5707;49.588;12.148;2024-02-26T02:53:03;-2.70;99.90
11304;DHT22;5707;49.588;12.148;2024-02-26T02:55:29;-2.60;99.90
11304;DHT22;5707;49.588;12.148;2024-02-26T02:57:54;-2.60;99.90
11304;DHT22;5707;49.588;12.148;2024-02-26T03:00:20;-2.60;99.90
11304;DHT22;5707;49.588;12.148;2024-02-26T03:02:48;-2.30;99.90
11304;DHT22;5707;49.588;12.148;2024-02-26T03:05:14;-2.20;99.90
11304;DHT22;5707;49.588;12.148;2024-02-26T03:07:39;-2.10;99.90
11304;DHT22;5707;49.588;12.148;2024-02-26T03:10:05;-2.20;99.90
11304;DHT22;5707;49.588;12.148;2024-02-26T03:12:30;-2.00;99.90
11304;DHT22;5707;49.588;12.148;2024-02-26T03:14:57;-1.90;99.90
11304;DHT22;5707;49.588;12.148;2024-02-26T03:17:22;-1.90;99.90
11304;DHT22;5707;49.588;12.148;2024-02-26T03:19:49;-2.00;99.90
11304;DHT22;5707;49.588;12.148;2024-02-26T03:22:18;-2.00;99.90
11304;DHT22;5707;49.588;12.148;2024-02-26T03:24:44;-2.00;99.90
11304;DHT22;5707;49.588;12.148;2024-02-26T03:27:09;-2.00;99.90
11304;DHT22;5707;49.588;12.148;2024-02-26T03:29:37;-2.10;99.90
11304;DHT22;5707;49.588;12.148;2024-02-26T03:32:02;-2.10;99.90
11304;DHT22;5707;49.588;12.148;2024-02-26T03:34:28;-2.10;99.90
11304;DHT22;5707;49.588;12.148;2024-02-26T03:36:54;-2.10;99.90
11304;DHT22;5707;49.588;12.148;2024-02-26T03:39:19;-2.20;99.90
11304;DHT22;5707;49.588;12.148;2024-02-26T03:41:45;-2.30;99.90
11304;DHT22;5707;49.588;12.148;2024-02-26T03:44:10;-2.40;99.90
11304;DHT22;5707;49.588;12.148;2024-02-26T03:46:36;-2.40;99.90
11304;DHT22;5707;49.588;12.148;2024-02-26T03:49:01;-2.50;99.90
11304;DHT22;5707;49.588;12.148;2024-02-26T03:51:27;-2.50;99.90
11304;DHT22;5707;49.588;12.148;2024-02-26T03:53:57;-1.80;99.90
11304;DHT22;5707;49.588;12.148;2024-02-26T03:56:23;-1.10;99.90
11304;DHT22;5707;49.588;12.148;2024-02-26T03:58:48;-0.70;99.90
11304;DHT22;5707;49.588;12.148;2024-02-26T04:01:14;-0.40;99.90
11304;DHT22;5707;49.588;12.148;2024-02-26T04:03:39;-0.10;99.90
11304;DHT22;5707;49.588;12.148;2024-02-26T04:06:08;0.10;99.90
11304;DHT22;5707;49.588;12.148;2024-02-26T04:08:36;0.10;99.90
11304;DHT22;5707;49.588;12.148;2024-02-26T04:11:01;0.20;99.90
11304;DHT22;5707;49.588;12.148;2024-02-26T04:13:28;0.40;99.90
11304;DHT22;5707;49.588;12.148;2024-02-26T04:15:53;0.40;99.90
11304;DHT22;5707;49.588;12.148;2024-02-26T04:18:19;0.40;99.90
11304;DHT22;5707;49.588;12.148;2024-02-26T04:20:44;0.40;99.90
11304;DHT22;5707;49.588;12.148;2024-02-26T04:23:10;0.50;99.90
11304;DHT22;5707;49.588;12.148;2024-02-26T04:25:35;0.40;99.90
11304;DHT22;5707;49.588;12.148;2024-02-26T04:28:01;0.40;99.90
11304;DHT22;5707;49.588;12.148;2024-02-26T04:30:26;0.30;99.90
11304;DHT22;5707;49.588;12.148;2024-02-26T04:32:52;0.30;99.90
11304;DHT22;5707;49.588;12.148;2024-02-26T04:35:18;0.20;99.90
11304;DHT22;5707;49.588;12.148;2024-02-26T04:37:43;0.30;99.90
11304;DHT22;5707;49.588;12.148;2024-02-26T04:40:09;0.40;99.90
11304;DHT22;5707;49.588;12.148;2024-02-26T04:42:35;0.40;99.90
11304;DHT22;5707;49.588;12.148;2024-02-26T04:45:00;0.50;99.90
11304;DHT22;5707;49.588;12.148;2024-02-26T04:47:26;0.50;99.90
11304;DHT22;5707;49.588;12.148;2024-02-26T04:49:51;0.50;99.90
11304;DHT22;5707;49.588;12.148;2024-02-26T04:52:18;0.60;99.90
11304;DHT22;5707;49.588;12.148;2024-02-26T04:54:43;0.60;99.90
11304;DHT22;5707;49.588;12.148;2024-02-26T04:57:09;0.50;99.90
11304;DHT22;5707;49.588;12.148;2024-02-26T04:59:34;0.60;99.90
11304;DHT22;5707;49.588;12.148;2024-02-26T05:02:00;0.60;99.90
11304;DHT22;5707;49.588;12.148;2024-02-26T05:04:25;0.60;99.90
11304;DHT22;5707;49.588;12.148;2024-02-26T05:06:51;0.60;99.90
11304;DHT22;5707;49.588;12.148;2024-02-26T05:09:17;0.60;99.90
11304;DHT22;5707;49.588;12.148;2024-02-26T05:11:42;0.70;99.90
11304;DHT22;5707;49.588;12.148;2024-02-26T05:14:08;0.80;99.90
11304;DHT22;5707;49.588;12.148;2024-02-26T05:16:33;0.80;99.90
11304;DHT22;5707;49.588;12.148;2024-02-26T05:18:59;0.70;99.90
11304;DHT22;5707;49.588;12.148;2024-02-26T05:21:24;0.80;99.90
11304;DHT22;5707;49.588;12.148;2024-02-26T05:23:50;0.80;99.90
11304;DHT22;5707;49.588;12.148;2024-02-26T05:26:22;0.80;99.90
11304;DHT22;5707;49.588;12.148;2024-02-26T05:28:48;0.70;99.90
11304;DHT22;5707;49.588;12.148;2024-02-26T05:31:14;0.70;99.90
11304;DHT22;5707;49.588;12.148;2024-02-26T05:33:40;0.80;99.90
11304;DHT22;5707;49.588;12.148;2024-02-26T05:36:06;0.80;99.90
11304;DHT22;5707;49.588;12.148;2024-02-26T05:38:31;0.70;99.90
11304;DHT22;5707;49.588;12.148;2024-02-26T05:40:58;0.80;99.90
11304;DHT22;5707;49.588;12.148;2024-02-26T05:43:27;0.80;99.90
11304;DHT22;5707;49.588;12.148;2024-02-26T05:45:53;0.80;99.90
11304;DHT22;5707;49.588;12.148;2024-02-26T05:48:19;0.80;99.90
11304;DHT22;5707;49.588;12.148;2024-02-26T05:50:45;0.70;99.90
11304;DHT22;5707;49.588;12.148;2024-02-26T05:53:11;0.70;99.90
11304;DHT22;5707;49.588;12.148;2024-02-26T05:55:36;0.70;99.90
11304;DHT22;5707;49.588;12.148;2024-02-26T05:58:02;0.70;99.90
11304;DHT22;5707;49.588;12.148;2024-02-26T06:00:28;0.80;99.90
11304;DHT22;5707;49.588;12.148;2024-02-26T06:02:54;0.80;99.90
11304;DHT22;5707;49.588;12.148;2024-02-26T06:05:19;0.80;99.90
11304;DHT22;5707;49.588;12.148;2024-02-26T06:07:45;0.80;99.90
11304;DHT22;5707;49.588;12.148;2024-02-26T06:10:10;0.70;99.90
11304;DHT22;5707;49.588;12.148;2024-02-26T06:12:36;0.70;99.90
11304;DHT22;5707;49.588;12.148;2024-02-26T06:15:02;0.70;99.90
11304;DHT22;5707;49.588;12.148;2024-02-26T06:17:28;0.80;99.90
11304;DHT22;5707;49.588;12.148;2024-02-26T06:19:53;0.80;99.90
11304;DHT22;5707;49.588;12.148;2024-02-26T06:22:19;0.80;99.90
11304;DHT22;5707;49.588;12.148;2024-02-26T06:24:44;0.80;99.90
11304;DHT22;5707;49.588;12.148;2024-02-26T06:27:10;0.90;99.90
11304;DHT22;5707;49.588;12.148;2024-02-26T06:29:35;0.80;99.90
11304;DHT22;5707;49.588;12.148;2024-02-26T06:32:01;0.80;99.90
11304;DHT22;5707;49.588;12.148;2024-02-26T06:34:27;0.80;99.90
11304;DHT22;5707;49.588;12.148;2024-02-26T06:36:52;0.80;99.90
11304;DHT22;5707;49.588;12.148;2024-02-26T06:39:18;0.90;99.90
11304;DHT22;5707;49.588;12.148;2024-02-26T06:41:44;0.90;99.90
11304;DHT22;5707;49.588;12.148;2024-02-26T06:44:12;1.00;99.90
11304;DHT22;5707;49.588;12.148;2024-02-26T06:46:38;1.10;99.90
11304;DHT22;5707;49.588;12.148;2024-02-26T06:49:03;1.00;99.90
11304;DHT22;5707;49.588;12.148;2024-02-26T06:51:29;1.10;99.90
11304;DHT22;5707;49.588;12.148;2024-02-26T06:53:55;1.10;99.90
11304;DHT22;5707;49.588;12.148;2024-02-26T06:56:20;1.20;99.90
11304;DHT22;5707;49.588;12.148;2024-02-26T06:58:46;1.20;99.90
11304;DHT22;5707;49.588;12.148;2024-02-26T07:01:12;1.30;99.90
11304;DHT22;5707;49.588;12.148;2024-02-26T07:03:40;1.40;99.90
11304;DHT22;5707;49.588;12.148;2024-02-26T07:06:06;1.50;99.90
11304;DHT22;5707;49.588;12.148;2024-02-26T07:08:32;1.50;99.90
11304;DHT22;5707;49.588;12.148;2024-02-26T07:10:57;1.60;99.90
11304;DHT22;5707;49.588;12.148;2024-02-26T07:13:23;1.70;99.90
11304;DHT22;5707;49.588;12.148;2024-02-26T07:15:49;1.70;99.90
11304;DHT22;5707;49.588;12.148;2024-02-26T07:18:14;1.80;99.90
11304;DHT22;5707;49.588;12.148;2024-02-26T07:20:40;1.90;99.90
11304;DHT22;5707;49.588;12.148;2024-02-26T07:23:05;2.00;99.90
11304;DHT22;5707;49.588;12.148;2024-02-26T07:25:32;2.10;99.90
11304;DHT22;5707;49.588;12.148;2024-02-26T07:27:58;2.10;99.90
11304;DHT22;5707;49.588;12.148;2024-02-26T07:30:24;2.20;99.90
11304;DHT22;5707;49.588;12.148;2024-02-26T07:32:50;2.20;99.90
11304;DHT22;5707;49.588;12.148;2024-02-26T07:35:16;2.30;99.90
11304;DHT22;5707;49.588;12.148;2024-02-26T07:37:43;2.40;99.90
11304;DHT22;5707;49.588;12.148;2024-02-26T07:40:09;2.50;99.90
11304;DHT22;5707;49.588;12.148;2024-02-26T07:42:34;2.70;99.90
11304;DHT22;5707;49.588;12.148;2024-02-26T07:45:00;2.90;99.90
11304;DHT22;5707;49.588;12.148;2024-02-26T07:47:26;3.00;99.90
11304;DHT22;5707;49.588;12.148;2024-02-26T07:49:51;3.00;99.90
11304;DHT22;5707;49.588;12.148;2024-02-26T07:52:17;3.00;99.90
11304;DHT22;5707;49.588;12.148;2024-02-26T07:54:42;3.10;99.90
11304;DHT22;5707;49.588;12.148;2024-02-26T07:57:08;3.10;99.90
11304;DHT22;5707;49.588;12.148;2024-02-26T07:59:33;3.30;99.90
11304;DHT22;5707;49.588;12.148;2024-02-26T08:01:59;3.40;99.90
11304;DHT22;5707;49.588;12.148;2024-02-26T08:04:26;3.40;99.90
11304;DHT22;5707;49.588;12.148;2024-02-26T08:06:52;3.40;99.90
11304;DHT22;5707;49.588;12.148;2024-02-26T08:09:17;3.30;99.90
11304;DHT22;5707;49.588;12.148;2024-02-26T08:11:43;3.20;99.90
11304;DHT22;5707;49.588;12.148;2024-02-26T08:14:08;3.20;99.90
11304;DHT22;5707;49.588;12.148;2024-02-26T08:16:34;3.30;99.90
11304;DHT22;5707;49.588;12.148;2024-02-26T08:18:59;3.40;99.90
11304;DHT22;5707;49.588;12.148;2024-02-26T08:21:25;3.40;99.90
11304;DHT22;5707;49.588;12.148;2024-02-26T08:23:50;3.40;99.90
11304;DHT22;5707;49.588;12.148;2024-02-26T08:26:16;3.50;99.90
11304;DHT22;5707;49.588;12.148;2024-02-26T08:28:42;3.40;99.90
11304;DHT22;5707;49.588;12.148;2024-02-26T08:31:07;3.40;99.90
11304;DHT22;5707;49.588;12.148;2024-02-26T08:33:33;3.50;99.90
11304;DHT22;5707;49.588;12.148;2024-02-26T08:36:04;3.60;99.90
11304;DHT22;5707;49.588;12.148;2024-02-26T08:38:30;3.60;99.90
11304;DHT22;5707;49.588;12.148;2024-02-26T08:40:55;3.60;99.90
11304;DHT22;5707;49.588;12.148;2024-02-26T08:43:21;3.60;99.90
11304;DHT22;5707;49.588;12.148;2024-02-26T08:45:47;3.50;99.90
11304;DHT22;5707;49.588;12.148;2024-02-26T08:48:12;3.60;99.90
11304;DHT22;5707;49.588;12.148;2024-02-26T08:50:38;3.80;99.90
11304;DHT22;5707;49.588;12.148;2024-02-26T08:53:03;4.00;99.90
11304;DHT22;5707;49.588;12.148;2024-02-26T08:55:29;4.20;99.90
11304;DHT22;5707;49.588;12.148;2024-02-26T08:57:55;4.50;99.90
11304;DHT22;5707;49.588;12.148;2024-02-26T09:00:20;4.80;99.90
11304;DHT22;5707;49.588;12.148;2024-02-26T09:02:47;5.00;99.90
11304;DHT22;5707;49.588;12.148;2024-02-26T09:05:13;5.30;99.90
11304;DHT22;5707;49.588;12.148;2024-02-26T09:07:38;5.60;99.90
11304;DHT22;5707;49.588;12.148;2024-02-26T09:10:05;5.90;99.90
11304;DHT22;5707;49.588;12.148;2024-02-26T09:12:31;6.00;99.90
11304;DHT22;5707;49.588;12.148;2024-02-26T09:14:57;6.20;99.90
11304;DHT22;5707;49.588;12.148;2024-02-26T09:17:23;6.30;99.90
11304;DHT22;5707;49.588;12.148;2024-02-26T09:19:48;6.50;99.90
11304;DHT22;5707;49.588;12.148;2024-02-26T09:22:14;6.60;99.90
11304;DHT22;5707;49.588;12.148;2024-02-26T09:24:39;6.60;99.90
11304;DHT22;5707;49.588;12.148;2024-02-26T09:27:05;6.60;99.90
11304;DHT22;5707;49.588;12.148;2024-02-26T09:29:30;6.70;99.90
11304;DHT22;5707;49.588;12.148;2024-02-26T09:31:56;6.60;99.90
11304;DHT22;5707;49.588;12.148;2024-02-26T09:34:22;6.50;99.90
11304;DHT22;5707;49.588;12.148;2024-02-26T09:36:47;6.50;99.90
11304;DHT22;5707;49.588;12.148;2024-02-26T09:39:13;6.70;99.90
11304;DHT22;5707;49.588;12.148;2024-02-26T09:41:40;6.80;99.90
11304;DHT22;5707;49.588;12.148;2024-02-26T09:44:06;6.90;99.90
11304;DHT22;5707;49.588;12.148;2024-02-26T09:46:31;7.00;99.90
11304;DHT22;5707;49.588;12.148;2024-02-26T09:48:58;7.10;99.90
11304;DHT22;5707;49.588;12.148;2024-02-26T09:51:24;7.20;99.90
11304;DHT22;5707;49.588;12.148;2024-02-26T09:53:52;7.30;99.90
11304;DHT22;5707;49.588;12.148;2024-02-26T09:56:18;7.20;99.90
11304;DHT22;5707;49.588;12.148;2024-02-26T09:58:45;7.20;99.90
11304;DHT22;5707;49.588;12.148;2024-02-26T10:01:18;7.00;99.90
11304;DHT22;5707;49.588;12.148;2024-02-26T10:03:56;6.80;99.90
11304;DHT22;5707;49.588;12.148;2024-02-26T10:06:24;6.80;99.90
11304;DHT22;5707;49.588;12.148;2024-02-26T10:08:51;7.00;99.90
11304;DHT22;5707;49.588;12.148;2024-02-26T10:11:18;7.10;99.90
11304;DHT22;5707;49.588;12.148;2024-02-26T10:13:43;7.30;99.90
11304;DHT22;5707;49.588;12.148;2024-02-26T10:16:09;7.50;99.90
11304;DHT22;5707;49.588;12.148;2024-02-26T10:18:52;7.60;99.90
11304;DHT22;5707;49.588;12.148;2024-02-26T10:21:20;7.70;99.90
11304;DHT22;5707;49.588;12.148;2024-02-26T10:23:46;7.90;99.90
11304;DHT22;5707;49.588;12.148;2024-02-26T10:26:13;8.00;99.90
11304;DHT22;5707;49.588;12.148;2024-02-26T10:28:40;8.40;99.90
11304;DHT22;5707;49.588;12.148;2024-02-26T10:31:06;8.60;99.90
11304;DHT22;5707;49.588;12.148;2024-02-26T10:33:36;8.80;99.90
11304;DHT22;5707;49.588;12.148;2024-02-26T10:36:06;8.90;99.90
11304;DHT22;5707;49.588;12.148;2024-02-26T10:38:34;9.00;99.90
11304;DHT22;5707;49.588;12.148;2024-02-26T10:40:59;8.90;99.90
11304;DHT22;5707;49.588;12.148;2024-02-26T10:43:26;8.80;99.90
11304;DHT22;5707;49.588;12.148;2024-02-26T10:45:52;8.90;99.90
11304;DHT22;5707;49.588;12.148;2024-02-26T10:48:18;9.00;99.90
11304;DHT22;5707;49.588;12.148;2024-02-26T10:50:44;9.00;99.90
11304;DHT22;5707;49.588;12.148;2024-02-26T10:53:15;8.80;99.90
11304;DHT22;5707;49.588;12.148;2024-02-26T10:55:44;8.90;99.90
11304;DHT22;5707;49.588;12.148;2024-02-26T10:58:12;9.00;99.90
11304;DHT22;5707;49.588;12.148;2024-02-26T11:00:39;8.80;99.90
11304;DHT22;5707;49.588;12.148;2024-02-26T11:03:06;8.80;99.90
11304;DHT22;5707;49.588;12.148;2024-02-26T11:05:33;8.80;99.90
11304;DHT22;5707;49.588;12.148;2024-02-26T11:08:00;8.90;99.90
11304;DHT22;5707;49.588;12.148;2024-02-26T11:10:27;9.10;99.90
11304;DHT22;5707;49.588;12.148;2024-02-26T11:12:55;9.20;99.90
11304;DHT22;5707;49.588;12.148;2024-02-26T11:15:21;9.20;99.90
11304;DHT22;5707;49.588;12.148;2024-02-26T11:17:48;9.10;99.90
11304;DHT22;5707;49.588;12.148;2024-02-26T11:20:14;9.00;99.90
11304;DHT22;5707;49.588;12.148;2024-02-26T11:22:40;8.80;99.90
11304;DHT22;5707;49.588;12.148;2024-02-26T11:25:06;8.80;99.90
11304;DHT22;5707;49.588;12.148;2024-02-26T11:27:38;8.80;99.90
11304;DHT22;5707;49.588;12.148;2024-02-26T11:30:08;8.90;99.90
11304;DHT22;5707;49.588;12.148;2024-02-26T11:32:34;8.90;99.90
11304;DHT22;5707;49.588;12.148;2024-02-26T11:35:00;8.90;99.90
11304;DHT22;5707;49.588;12.148;2024-02-26T11:37:26;9.10;99.90
11304;DHT22;5707;49.588;12.148;2024-02-26T11:39:52;9.20;99.90
11304;DHT22;5707;49.588;12.148;2024-02-26T11:42:23;9.30;99.90
11304;DHT22;5707;49.588;12.148;2024-02-26T11:44:49;9.20;99.90
11304;DHT22;5707;49.588;12.148;2024-02-26T11:47:19;9.30;99.90
11304;DHT22;5707;49.588;12.148;2024-02-26T11:49:45;9.50;99.90
11304;DHT22;5707;49.588;12.148;2024-02-26T11:52:11;9.50;99.90
11304;DHT22;5707;49.588;12.148;2024-02-26T11:55:00;9.50;99.90
11304;DHT22;5707;49.588;12.148;2024-02-26T12:02:46;9.30;99.90
11304;DHT22;5707;49.588;12.148;2024-02-26T12:05:20;9.20;99.90
11304;DHT22;5707;49.588;12.148;2024-02-26T12:07:48;9.00;99.90
11304;DHT22;5707;49.588;12.148;2024-02-26T12:12:53;8.90;99.90
11304;DHT22;5707;49.588;12.148;2024-02-26T12:15:19;9.00;99.90
11304;DHT22;5707;49.588;12.148;2024-02-26T12:17:48;9.10;99.90
11304;DHT22;5707;49.588;12.148;2024-02-26T12:20:17;9.20;99.90
11304;DHT22;5707;49.588;12.148;2024-02-26T12:22:45;9.20;99.90
11304;DHT22;5707;49.588;12.148;2024-02-26T12:25:13;9.10;99.90
11304;DHT22;5707;49.588;12.148;2024-02-26T12:27:39;9.10;99.90
11304;DHT22;5707;49.588;12.148;2024-02-26T12:30:05;9.10;99.90
11304;DHT22;5707;49.588;12.148;2024-02-26T12:32:31;9.20;99.90
11304;DHT22;5707;49.588;12.148;2024-02-26T12:34:58;9.20;99.90
11304;DHT22;5707;49.588;12.148;2024-02-26T12:37:25;9.20;99.90
11304;DHT22;5707;49.588;12.148;2024-02-26T12:39:51;9.20;99.90
11304;DHT22;5707;49.588;12.148;2024-02-26T12:42:16;9.10;99.90
11304;DHT22;5707;49.588;12.148;2024-02-26T12:44:45;9.00;99.90
11304;DHT22;5707;49.588;12.148;2024-02-26T12:47:11;9.00;99.90
11304;DHT22;5707;49.588;12.148;2024-02-26T12:49:42;9.20;99.90
11304;DHT22;5707;49.588;12.148;2024-02-26T12:52:08;9.30;99.90
11304;DHT22;5707;49.588;12.148;2024-02-26T12:54:34;9.40;99.90
11304;DHT22;5707;49.588;12.148;2024-02-26T12:57:01;9.30;99.90
11304;DHT22;5707;49.588;12.148;2024-02-26T12:59:29;9.20;99.90
11304;DHT22;5707;49.588;12.148;2024-02-26T13:01:55;9.20;99.90
11304;DHT22;5707;49.588;12.148;2024-02-26T13:04:21;9.20;99.90
11304;DHT22;5707;49.588;12.148;2024-02-26T13:06:46;9.30;99.90
11304;DHT22;5707;49.588;12.148;2024-02-26T13:09:15;9.40;99.90
11304;DHT22;5707;49.588;12.148;2024-02-26T13:11:43;9.60;99.90
11304;DHT22;5707;49.588;12.148;2024-02-26T13:14:19;9.70;99.90
11304;DHT22;5707;49.588;12.148;2024-02-26T13:16:54;9.70;99.90
11304;DHT22;5707;49.588;12.148;2024-02-26T13:19:19;9.70;99.90
11304;DHT22;5707;49.588;12.148;2024-02-26T13:21:45;9.80;99.90
11304;DHT22;5707;49.588;12.148;2024-02-26T13:24:13;9.80;99.90
11304;DHT22;5707;49.588;12.148;2024-02-26T13:26:39;9.70;99.90
11304;DHT22;5707;49.588;12.148;2024-02-26T13:29:05;9.50;99.90
11304;DHT22;5707;49.588;12.148;2024-02-26T13:31:31;9.60;99.90
11304;DHT22;5707;49.588;12.148;2024-02-26T13:33:57;9.60;99.90
11304;DHT22;5707;49.588;12.148;2024-02-26T13:36:23;9.60;99.90
11304;DHT22;5707;49.588;12.148;2024-02-26T13:38:53;9.80;99.90
11304;DHT22;5707;49.588;12.148;2024-02-26T13:41:18;10.00;99.90
11304;DHT22;5707;49.588;12.148;2024-02-26T13:43:44;9.90;99.90
11304;DHT22;5707;49.588;12.148;2024-02-26T13:46:10;9.60;99.90
11304;DHT22;5707;49.588;12.148;2024-02-26T13:48:38;9.40;99.90
11304;DHT22;5707;49.588;12.148;2024-02-26T13:51:03;9.10;99.90
11304;DHT22;5707;49.588;12.148;2024-02-26T13:53:29;8.90;99.90
11304;DHT22;5707;49.588;12.148;2024-02-26T13:55:55;8.60;99.90
11304;DHT22;5707;49.588;12.148;2024-02-26T13:58:21;8.40;99.90
11304;DHT22;5707;49.588;12.148;2024-02-26T14:00:49;8.30;99.90
11304;DHT22;5707;49.588;12.148;2024-02-26T14:03:15;8.40;99.90
11304;DHT22;5707;49.588;12.148;2024-02-26T14:05:41;8.30;99.90
11304;DHT22;5707;49.588;12.148;2024-02-26T14:08:07;8.40;99.90
11304;DHT22;5707;49.588;12.148;2024-02-26T14:10:33;8.30;99.90
11304;DHT22;5707;49.588;12.148;2024-02-26T14:12:59;8.00;99.90
11304;DHT22;5707;49.588;12.148;2024-02-26T14:15:25;7.80;99.90
11304;DHT22;5707;49.588;12.148;2024-02-26T14:17:52;7.60;99.90
11304;DHT22;5707;49.588;12.148;2024-02-26T14:20:24;7.50;99.90
11304;DHT22;5707;49.588;12.148;2024-02-26T14:22:51;7.50;99.90
11304;DHT22;5707;49.588;12.148;2024-02-26T14:25:20;7.30;99.90
11304;DHT22;5707;49.588;12.148;2024-02-26T14:27:49;7.10;99.90
11304;DHT22;5707;49.588;12.148;2024-02-26T14:30:15;6.90;99.90
11304;DHT22;5707;49.588;12.148;2024-02-26T14:32:41;6.70;99.90
11304;DHT22;5707;49.588;12.148;2024-02-26T14:35:10;6.50;99.90
11304;DHT22;5707;49.588;12.148;2024-02-26T14:37:36;6.40;99.90
11304;DHT22;5707;49.588;12.148;2024-02-26T14:40:02;6.30;99.90
11304;DHT22;5707;49.588;12.148;2024-02-26T14:42:29;6.40;99.90
11304;DHT22;5707;49.588;12.148;2024-02-26T14:44:54;6.50;99.90
11304;DHT22;5707;49.588;12.148;2024-02-26T14:47:20;6.50;99.90
11304;DHT22;5707;49.588;12.148;2024-02-26T14:49:45;6.60;99.90
11304;DHT22;5707;49.588;12.148;2024-02-26T14:52:16;6.60;99.90
11304;DHT22;5707;49.588;12.148;2024-02-26T14:54:42;6.70;99.90
11304;DHT22;5707;49.588;12.148;2024-02-26T14:57:08;6.80;99.90
11304;DHT22;5707;49.588;12.148;2024-02-26T14:59:34;6.80;99.90
11304;DHT22;5707;49.588;12.148;2024-02-26T15:02:02;6.70;99.90
11304;DHT22;5707;49.588;12.148;2024-02-26T15:04:27;6.60;99.90
11304;DHT22;5707;49.588;12.148;2024-02-26T15:06:53;6.60;99.90
11304;DHT22;5707;49.588;12.148;2024-02-26T15:09:18;6.50;99.90
11304;DHT22;5707;49.588;12.148;2024-02-26T15:11:44;6.40;99.90
11304;DHT22;5707;49.588;12.148;2024-02-26T15:14:10;6.30;99.90
11304;DHT22;5707;49.588;12.148;2024-02-26T15:16:36;6.30;99.90
11304;DHT22;5707;49.588;12.148;2024-02-26T15:19:02;6.20;99.90
11304;DHT22;5707;49.588;12.148;2024-02-26T15:21:29;6.00;99.90
11304;DHT22;5707;49.588;12.148;2024-02-26T15:23:54;5.90;99.90
11304;DHT22;5707;49.588;12.148;2024-02-26T15:26:20;5.90;99.90
11304;DHT22;5707;49.588;12.148;2024-02-26T15:28:46;5.90;99.90
11304;DHT22;5707;49.588;12.148;2024-02-26T15:31:12;5.80;99.90
11304;DHT22;5707;49.588;12.148;2024-02-26T15:33:37;5.80;99.90
11304;DHT22;5707;49.588;12.148;2024-02-26T15:36:03;5.70;99.90
11304;DHT22;5707;49.588;12.148;2024-02-26T15:38:29;5.70;99.90
11304;DHT22;5707;49.588;12.148;2024-02-26T15:40:55;5.60;99.90
11304;DHT22;5707;49.588;12.148;2024-02-26T15:43:20;5.50;99.90